METAR Data
IDs: Format: Raw Decoded Include TAF

Data at: 2228 UTC 23 Apr 2019

KONM 232215Z AUTO 36008KT 10SM CLR 20/01 A2998 RMK AO2 LTG DSNT NW T02010009
KONM 232155Z AUTO 34009KT 10SM VCTS CLR 19/01 A2998 RMK AO2 LTG DSNT SE S AND NW T01930007
KONM 232135Z AUTO 33009KT 10SM CLR 20/01 A2999 RMK AO2 LTG DSNT SE T01950009
KONM 232115Z AUTO 34007KT 10SM TS CLR 19/01 A3000 RMK AO2 LTG DSNT NW T01920006
KONM 232055Z AUTO 34007KT 10SM SCT070 SCT090 19/00 A3000 RMK AO2 LTG DSNT SW AND W T01930001
KONM 232035Z AUTO 01006KT 10SM SCT070 20/00 A3001 RMK AO2 LTG DSNT W T01950003
KONM 232015Z AUTO 28003KT 10SM CLR 19/00 A3002 RMK AO2 LTG DSNT NE SE AND W T01940003
KONM 231955Z AUTO 10008KT 10SM SCT055 21/01 A3002 RMK AO2 LTG DSNT SW AND W T02050009
KONM 231935Z AUTO 03005KT 10SM SCT055 19/01 A3004 RMK AO2 T01900014
KONM 231915Z AUTO 03006KT 10SM SCT055 19/02 A3005 RMK AO2 T01920017
KONM 231855Z AUTO 01008KT 10SM SCT060 19/02 A3006 RMK AO2 T01870022
KONM 231835Z AUTO 36007KT 10SM SCT050 18/02 A3006 RMK AO2 LTG DSNT W T01770022
KONM 231815Z AUTO 00000KT 10SM CLR 18/03 A3007 RMK AO2 LTG DSNT NW T01780025
KONM 231755Z AUTO 00000KT 10SM SCT046 18/03 A3008 RMK AO2 T01750028 10175 20090
KONM 231735Z AUTO 05003KT 10SM SCT044 17/04 A3009 RMK AO2 T01660036
KONM 231715Z AUTO 29004KT 10SM SCT042 16/04 A3010 RMK AO2 T01610035
KONM 231655Z AUTO 00000KT 10SM SCT038 16/04 A3010 RMK AO2 T01580037
KONM 231635Z AUTO 03005KT 10SM BKN038 16/04 A3011 RMK AO2 T01560041
KONM 231615Z AUTO 31003KT 10SM CLR 14/04 A3011 RMK AO2 T01420040
KONM 231555Z AUTO 02004KT 10SM CLR 14/04 A3011 RMK AO2 T01430041
KONM 231535Z AUTO 00000KT 10SM CLR 13/04 A3011 RMK AO2 T01310039
KONM 231515Z AUTO 01004KT 10SM CLR 13/04 A3011 RMK AO2 T01260038
KONM 231455Z AUTO 04004KT 10SM CLR 13/04 A3011 RMK AO2 T01250041
KONM 231435Z AUTO 35004KT 10SM CLR 12/04 A3012 RMK AO2 T01200040
KONM 231415Z AUTO 35006KT 10SM SCT047 12/04 A3012 RMK AO2 T01160044
KONM 231355Z AUTO 01007KT 10SM BKN045 11/04 A3011 RMK AO2 T01110044
KONM 231335Z AUTO 36008KT 10SM OVC045 11/05 A3011 RMK AO2 T01100046
KONM 231315Z AUTO 36007KT 10SM BKN047 10/05 A3011 RMK AO2 T00990047
KONM 231255Z AUTO 35006KT 10SM CLR 09/05 A3010 RMK AO2 T00930051
KONM 231235Z AUTO 34005KT 10SM CLR 09/05 A3009 RMK AO2 T00900050
KONM 231215Z AUTO 34005KT 10SM CLR 09/05 A3007 RMK AO2 T00900050
KONM 231155Z AUTO 36005KT 10SM SCT044 10/05 A3008 RMK AO2 T00950049 10125 20095
KONM 231135Z AUTO 36004KT 10SM OVC044 10/05 A3007 RMK AO2 T01000047
KONM 231115Z AUTO 35004KT 10SM SCT044 10/05 A3007 RMK AO2 T01000046
KONM 231055Z AUTO 34007KT 10SM CLR 10/05 A3006 RMK AO2 T01010047
KONM 231035Z AUTO 33008KT 10SM CLR 10/05 A3006 RMK AO2 T01010048
KONM 231015Z AUTO 33006KT 10SM CLR 10/05 A3006 RMK AO2 T01020048
KONM 230955Z AUTO 35008KT 10SM SCT100 11/05 A3006 RMK AO2 T01050050
KONM 230935Z AUTO 36007KT 10SM OVC100 11/05 A3006 RMK AO2 T01050053
KONM 230915Z AUTO 01008KT 10SM OVC100 11/05 A3006 RMK AO2 T01110052
KONM 230855Z AUTO 01008KT 10SM BKN090 11/05 A3007 RMK AO2 T01100051
KONM 230835Z AUTO 01008KT 10SM CLR 11/05 A3006 RMK AO2 T01100053
KONM 230815Z AUTO 01009KT 10SM SCT090 11/05 A3006 RMK AO2 T01140054
KONM 230755Z AUTO 01008KT 10SM VCTS BKN090 OVC110 12/05 A3007 RMK AO2 LTG DSNT SE T01180053
KONM 230735Z AUTO 36007KT 10SM OVC100 12/06 A3008 RMK AO2 T01190055
KONM 230715Z AUTO 36005KT 10SM BKN110 12/05 A3008 RMK AO2 T01200053
KONM 230655Z AUTO 33005KT 10SM BKN120 12/05 A3008 RMK AO2 LTG DSNT SE T01200051
KONM 230635Z AUTO 33003KT 10SM BKN120 12/05 A3008 RMK AO2 LTG DSNT SE T01220048
KONM 230615Z AUTO 35004KT 10SM SCT120 12/05 A3008 RMK AO2 LTG DSNT SE T01230047
KONM 230555Z AUTO 35003KT 10SM SCT110 13/05 A3008 RMK AO2 T01250047 10188 20124 402520090
KONM 230535Z AUTO 00000KT 10SM SCT120 13/05 A3008 RMK AO2 LTG DSNT SE T01250045
KONM 230515Z AUTO 06003KT 10SM CLR 13/04 A3008 RMK AO2 T01280041
KONM 230455Z AUTO 05005KT 10SM SCT100 13/04 A3008 RMK AO2 T01320035
KONM 230435Z AUTO 06008KT 10SM SCT090 OVC110 14/03 A3007 RMK AO2 T01350032
KONM 230415Z AUTO 09004KT 10SM SCT090 OVC110 14/04 A3007 RMK AO2 T01350035
KONM 230355Z AUTO 09005KT 10SM BKN110 14/04 A3007 RMK AO2 T01360035
KONM 230335Z AUTO 10006KT 10SM CLR 14/03 A3007 RMK AO2 T01410032
KONM 230310Z AUTO 14008KT 10SM SCT120 15/02 A3006 RMK AO2 T01500016
KONM 230255Z AUTO 12007KT 10SM SCT120 15/01 A3005 RMK AO2 T01520013
KONM 230235Z AUTO 10005KT 10SM CLR 15/01 A3002 RMK AO2 T01530014
KONM 230215Z AUTO 15005KT 10SM CLR 16/00 A3001 RMK AO2 T01580002
KONM 230150Z AUTO 13005KT 10SM CLR 16/00 A2999 RMK AO2 LTG DSNT NE T01610000
KONM 230135Z AUTO 16005KT 10SM CLR 17/00 A3000 RMK AO2 T01701005
KONM 230115Z AUTO 19006KT 10SM BKN100 17/M01 A3001 RMK AO2 LTG DSNT E AND SE T01731006
KONM 230055Z AUTO 16007KT 10SM OVC110 18/00 A3001 RMK AO2 T01751005
KONM 230035Z AUTO 22011KT 10SM BKN100 BKN120 18/00 A3001 RMK AO2 LTG DSNT NE AND SE T01771004
KONM 230015Z AUTO 22011G26KT 10SM BKN110 19/M01 A2999 RMK AO2 T01851011
KONM 222355Z AUTO 22013G21KT 10SM SCT110 18/M01 A2999 RMK AO2 T01831007 10252 20181
KONM 222335Z AUTO 24022G31KT 10SM SCT070 SCT100 BKN110 19/M01 A2999 RMK AO2 LTG DSNT NE T01871012
KONM 222315Z AUTO 25028G37KT 10SM SCT110 20/M02 A2996 RMK AO2 T02011023
KONM 222255Z AUTO 20017G23KT 10SM CLR 23/M08 A2996 RMK AO2 T02291076
KONM 222235Z AUTO 18012G21KT 10SM SCT110 24/M08 A2994 RMK AO2 T02371081
KONM 222215Z AUTO 14010G18KT 10SM SCT110 23/M05 A2994 RMK AO2 T02341052
KONM 222155Z AUTO 17009G19KT 10SM SCT110 24/M05 A2994 RMK AO2 T02381053
KONM 222135Z AUTO 17014G26KT 10SM CLR 25/M05 A2995 RMK AO2 T02471054
KONM 222115Z AUTO 15009G18KT 130V190 10SM CLR 24/M06 A2996 RMK AO2 T02381057
KONM 222055Z AUTO 17009G20KT 10SM CLR 25/M05 A2997 RMK AO2 T02461052
KONM 222035Z AUTO 13010G15KT 10SM CLR 23/M05 A2998 RMK AO2 T02311055
KONM 222015Z AUTO 15016G22KT 10SM CLR 23/M06 A2999 RMK AO2 LTG DSNT NE T02301056
KONM 221955Z AUTO 15010G20KT 10SM CLR 22/M06 A3000 RMK AO2 T02231060
KONM 221935Z AUTO 15014G19KT 10SM CLR 23/M04 A3001 RMK AO2 T02271043
KONM 221915Z AUTO 18007KT 10SM CLR 22/M04 A3002 RMK AO2 T02151038
KONM 221855Z AUTO 09005KT 10SM CLR 21/M01 A3003 RMK AO2 T02121007
KONM 221835Z AUTO 12008KT 10SM CLR 21/00 A3005 RMK AO2 T02131002
KONM 221815Z AUTO 08009G15KT 10SM CLR 21/M01 A3005 RMK AO2 T02091009
KONM 221755Z AUTO 12008KT 10SM CLR 20/00 A3006 RMK AO2 T02021004 10203 20090
KONM 221735Z AUTO 00000KT 10SM CLR 20/M01 A3007 RMK AO2 T01971009
KONM 221715Z AUTO 34003KT 10SM CLR 18/M03 A3008 RMK AO2 T01821028
KONM 221655Z AUTO 00000KT 10SM CLR 18/M04 A3007 RMK AO2 T01771036
KONM 221635Z AUTO 00000KT 10SM CLR 18/M04 A3008 RMK AO2 T01811041
KONM 221615Z AUTO 01006KT 10SM SCT120 17/M04 A3006 RMK AO2 T01741044
KONM 221555Z AUTO 35006KT 10SM CLR 17/M04 A3007 RMK AO2 T01731043
KONM 221535Z AUTO 34008KT 10SM CLR 17/M04 A3007 RMK AO2 T01711042
KONM 221515Z AUTO 34008KT 10SM CLR 17/M04 A3007 RMK AO2 T01701037
KONM 221455Z AUTO 34005KT 10SM CLR 15/M04 A3007 RMK AO2 T01511041
KONM 221435Z AUTO 30006KT 10SM CLR 14/M03 A3006 RMK AO2 T01411034
KONM 221415Z AUTO 29004KT 10SM CLR 13/M03 A3006 RMK AO2 T01311032
KONM 221355Z AUTO 27004KT 10SM CLR 12/M02 A3006 RMK AO2 T01151024
KONM 221335Z AUTO 19003KT 10SM CLR 09/M02 A3006 RMK AO2 T00911020
KONM 221315Z AUTO 00000KT 10SM CLR 10/M03 A3005 RMK AO2 T01021031
KONM 221255Z AUTO 33003KT 10SM CLR 11/M04 A3004 RMK AO2 T01121045
KONM 221235Z AUTO 35006KT 10SM CLR 12/M05 A3003 RMK AO2 T01201048
KONM 221215Z AUTO 32007KT 10SM CLR 11/M04 A3002 RMK AO2 T01111041
KONM 221155Z AUTO 32006KT 10SM CLR 11/M04 A3002 RMK AO2 T01121044 10172 20107
KONM 221135Z AUTO 29005KT 10SM CLR 11/M04 A3002 RMK AO2 T01101042
KONM 221115Z AUTO 30005KT 10SM CLR 11/M04 A3002 RMK AO2 T01071040
KONM 221055Z AUTO 02005KT 10SM CLR 12/M04 A3001 RMK AO2 T01151041
KONM 221035Z AUTO 33005KT 10SM CLR 13/M04 A3000 RMK AO2 T01251043